createdAt,value
2018-05-26T00:00:19.999Z,93.60
2018-05-26T00:02:47.423Z,93.60
2018-05-26T00:05:14.890Z,93.60
2018-05-26T00:07:42.338Z,93.60
2018-05-26T00:10:10.542Z,93.70
2018-05-26T00:12:38.123Z,93.70
2018-05-26T00:15:05.539Z,93.70
2018-05-26T00:17:33.056Z,93.80
2018-05-26T00:20:00.530Z,93.80
2018-05-26T00:22:27.993Z,93.80
2018-05-26T00:24:55.470Z,93.90
2018-05-26T00:27:22.897Z,93.90
2018-05-26T00:29:50.403Z,93.90
2018-05-26T00:32:17.874Z,94.40
2018-05-26T00:34:45.295Z,94.10
2018-05-26T00:37:13.490Z,94.20
2018-05-26T00:39:41.001Z,94.20
2018-05-26T00:42:08.515Z,94.30
2018-05-26T00:44:36.010Z,94.30
2018-05-26T00:47:03.438Z,94.30
2018-05-26T00:49:30.868Z,94.30
2018-05-26T00:51:58.350Z,94.40
2018-05-26T00:54:25.838Z,94.50
2018-05-26T00:56:53.290Z,94.50
2018-05-26T00:59:20.762Z,94.50
2018-05-26T01:01:48.186Z,94.50
2018-05-26T01:04:16.423Z,94.50
2018-05-26T01:06:43.834Z,94.50
2018-05-26T01:09:12.771Z,94.50
2018-05-26T01:11:40.978Z,94.60
2018-05-26T01:14:08.450Z,94.60
2018-05-26T01:16:35.878Z,94.60
2018-05-26T01:19:03.391Z,94.70
2018-05-26T01:21:30.810Z,94.70
2018-05-26T01:23:58.326Z,94.60
2018-05-26T01:26:25.742Z,94.60
2018-05-26T01:28:53.983Z,94.70
2018-05-26T01:31:21.455Z,94.80
2018-05-26T01:33:48.922Z,94.70
2018-05-26T01:36:16.403Z,94.60
2018-05-26T01:38:43.831Z,94.60
2018-05-26T01:41:12.059Z,94.70
2018-05-26T01:43:39.522Z,94.70
2018-05-26T01:46:07.054Z,94.70
2018-05-26T01:48:34.663Z,94.70
2018-05-26T01:51:02.138Z,94.70
2018-05-26T01:53:29.562Z,94.70
2018-05-26T01:55:57.074Z,94.70
2018-05-26T01:58:24.503Z,94.70
2018-05-26T02:00:52.043Z,94.70
2018-05-26T02:03:19.490Z,94.80
2018-05-26T02:05:46.959Z,94.80
2018-05-26T02:08:14.433Z,94.70
2018-05-26T02:10:41.894Z,94.70
2018-05-26T02:13:09.366Z,94.70
2018-05-26T02:15:36.947Z,94.70
2018-05-26T02:18:04.383Z,94.80
2018-05-26T02:20:32.569Z,94.90
2018-05-26T02:23:00.765Z,94.90
2018-05-26T02:25:28.971Z,95.00
2018-05-26T02:27:56.443Z,95.00
2018-05-26T02:30:23.907Z,95.00
2018-05-26T02:32:51.383Z,95.10
2018-05-26T02:35:18.855Z,95.10
2018-05-26T02:37:46.318Z,95.10
2018-05-26T02:40:13.742Z,95.20
2018-05-26T02:42:42.674Z,95.30
2018-05-26T02:45:10.879Z,95.20
2018-05-26T02:47:38.344Z,95.20
2018-05-26T02:50:06.643Z,95.30
2018-05-26T02:52:34.111Z,95.20
2018-05-26T02:55:01.584Z,95.30
2018-05-26T02:57:29.057Z,95.20
2018-05-26T02:59:56.518Z,95.30
2018-05-26T03:02:23.943Z,95.30
2018-05-26T03:04:57.042Z,95.30
2018-05-26T03:07:30.279Z,95.30
2018-05-26T03:10:04.159Z,95.30
2018-05-26T03:12:37.374Z,95.30
2018-05-26T03:15:04.311Z,95.30
2018-05-26T03:17:31.737Z,95.20
2018-05-26T03:19:59.163Z,95.20
2018-05-26T03:22:26.586Z,95.20
2018-05-26T03:24:54.023Z,95.20
2018-05-26T03:27:22.214Z,95.30
2018-05-26T03:29:50.431Z,95.30
2018-05-26T03:32:17.898Z,95.30
2018-05-26T03:34:45.375Z,95.40
2018-05-26T03:37:12.838Z,95.40
2018-05-26T03:39:40.277Z,95.40
2018-05-26T03:42:08.468Z,95.40
2018-05-26T03:44:36.658Z,95.40
2018-05-26T03:47:04.866Z,95.50
2018-05-26T03:49:32.336Z,95.50
2018-05-26T03:51:59.758Z,95.50
2018-05-26T03:54:39.223Z,95.50
2018-05-26T03:57:19.535Z,95.70
2018-05-26T04:02:59.018Z,95.40
2018-05-26T04:05:26.441Z,95.40
2018-05-26T04:07:53.866Z,95.40
2018-05-26T04:10:21.326Z,95.40
2018-05-26T04:12:48.754Z,95.40
2018-05-26T04:15:16.271Z,95.40
2018-05-26T04:17:43.743Z,95.40
2018-05-26T04:20:11.175Z,95.40
2018-05-26T04:22:39.369Z,95.40
2018-05-26T04:25:07.581Z,95.40
2018-05-26T04:27:35.047Z,95.40
2018-05-26T04:30:02.526Z,95.40
2018-05-26T04:32:29.955Z,95.30
2018-05-26T04:34:58.164Z,95.30
2018-05-26T04:37:26.363Z,95.30
2018-05-26T04:39:53.935Z,95.30
2018-05-26T04:42:21.411Z,95.20
2018-05-26T04:44:48.878Z,95.10
2018-05-26T04:47:16.360Z,95.20
2018-05-26T04:49:43.822Z,95.20
2018-05-26T04:52:11.291Z,95.10
2018-05-26T04:54:38.758Z,95.10
2018-05-26T04:57:06.232Z,95.00
2018-05-26T04:59:33.691Z,95.00
2018-05-26T05:02:01.114Z,94.90
2018-05-26T05:04:28.634Z,94.80
2018-05-26T05:06:56.106Z,94.70
2018-05-26T05:09:23.567Z,94.60
2018-05-26T05:11:51.071Z,94.60
2018-05-26T05:14:18.511Z,94.50
2018-05-26T05:16:45.935Z,94.50
2018-05-26T05:19:13.366Z,94.40
2018-05-26T05:21:40.833Z,94.20
2018-05-26T05:24:08.295Z,94.30
2018-05-26T05:26:35.870Z,94.30
2018-05-26T05:29:03.337Z,94.20
2018-05-26T05:31:30.768Z,93.90
2018-05-26T05:33:58.962Z,94.10
2018-05-26T05:36:27.154Z,93.80
2018-05-26T05:38:55.370Z,93.80
2018-05-26T05:41:22.842Z,93.80
2018-05-26T05:43:50.309Z,93.90
2018-05-26T05:46:17.785Z,94.10
2018-05-26T05:48:45.250Z,93.80
2018-05-26T05:51:12.678Z,93.80
2018-05-26T05:53:40.184Z,93.90
2018-05-26T05:56:07.656Z,93.80
2018-05-26T05:58:35.130Z,93.80
2018-05-26T06:01:02.595Z,93.60
2018-05-26T06:03:30.098Z,93.50
2018-05-26T06:05:57.543Z,93.50
2018-05-26T06:08:24.975Z,93.50
2018-05-26T06:10:53.175Z,93.00
2018-05-26T06:13:21.361Z,93.20
2018-05-26T06:15:48.855Z,93.20
2018-05-26T06:18:16.321Z,93.40
2018-05-26T06:20:43.747Z,93.20
2018-05-26T06:23:11.939Z,93.20
2018-05-26T06:25:39.392Z,93.20
2018-05-26T06:28:06.918Z,93.20
2018-05-26T06:30:34.382Z,92.80
2018-05-26T06:33:01.957Z,92.60
2018-05-26T06:35:30.134Z,92.60
2018-05-26T06:37:57.550Z,92.50
2018-05-26T06:40:24.987Z,92.70
2018-05-26T06:42:52.455Z,92.20
2018-05-26T06:45:19.967Z,92.30
2018-05-26T06:47:47.390Z,92.40
2018-05-26T06:50:14.871Z,92.50
2018-05-26T06:52:42.333Z,92.50
2018-05-26T06:55:09.754Z,92.60
2018-05-26T06:57:37.178Z,92.00
2018-05-26T07:00:04.647Z,91.60
2018-05-26T07:02:32.110Z,91.50
2018-05-26T07:04:59.585Z,91.70
2018-05-26T07:07:27.046Z,91.50
2018-05-26T07:09:54.475Z,91.70
2018-05-26T07:12:22.005Z,91.60
2018-05-26T07:14:49.514Z,91.70
2018-05-26T07:17:16.913Z,91.30
2018-05-26T07:19:44.347Z,91.40
2018-05-26T07:22:11.762Z,91.10
2018-05-26T07:24:39.234Z,91.30
2018-05-26T07:27:06.815Z,91.60
2018-05-26T07:29:34.238Z,91.90
2018-05-26T07:32:01.756Z,91.10
2018-05-26T07:34:29.186Z,91.30
2018-05-26T07:36:57.402Z,90.60
2018-05-26T07:39:24.900Z,90.60
2018-05-26T07:41:52.347Z,90.80
2018-05-26T07:44:19.778Z,90.30
2018-05-26T07:46:48.009Z,90.40
2018-05-26T07:49:15.439Z,90.20
2018-05-26T07:51:43.657Z,90.80
2018-05-26T07:54:11.231Z,90.80
2018-05-26T07:56:38.659Z,90.40
2018-05-26T07:59:06.205Z,90.70
2018-05-26T08:01:33.643Z,90.70
2018-05-26T08:04:01.063Z,90.50
2018-05-26T08:06:28.486Z,91.50
2018-05-26T08:08:55.906Z,91.30
2018-05-26T08:11:23.422Z,91.30
2018-05-26T08:13:50.886Z,91.10
2018-05-26T08:16:18.319Z,91.30
2018-05-26T08:18:45.839Z,90.30
2018-05-26T08:21:13.270Z,90.20
2018-05-26T08:23:41.591Z,89.40
2018-05-26T08:26:09.059Z,89.40
2018-05-26T08:28:36.526Z,89.90
2018-05-26T08:31:03.956Z,87.60
2018-05-26T08:33:31.379Z,89.30
2018-05-26T08:35:58.831Z,88.50
2018-05-26T08:38:26.307Z,87.40
2018-05-26T08:40:53.734Z,86.10
2018-05-26T08:43:21.149Z,88.20
2018-05-26T08:45:48.583Z,88.00
2018-05-26T08:48:16.798Z,86.70
2018-05-26T08:50:44.275Z,86.70
2018-05-26T08:53:11.738Z,86.20
2018-05-26T08:55:39.207Z,85.60
2018-05-26T08:58:06.682Z,86.40
2018-05-26T09:00:34.103Z,85.00
2018-05-26T09:03:01.631Z,86.90
2018-05-26T09:05:29.454Z,86.80
2018-05-26T09:07:56.967Z,86.70
2018-05-26T09:10:24.398Z,81.40
2018-05-26T09:12:51.906Z,81.00
2018-05-26T09:15:19.383Z,82.40
2018-05-26T09:17:46.798Z,81.60
2018-05-26T09:20:14.221Z,81.60
2018-05-26T09:22:41.642Z,81.70
2018-05-26T09:25:09.210Z,81.50
2018-05-26T09:27:36.731Z,79.90
2018-05-26T09:30:04.154Z,80.80
2018-05-26T09:32:31.671Z,79.80
2018-05-26T09:34:59.102Z,79.40
2018-05-26T09:37:27.327Z,78.80
2018-05-26T09:39:54.798Z,78.80
2018-05-26T09:42:22.271Z,78.50
2018-05-26T09:44:49.734Z,77.60
2018-05-26T09:47:17.204Z,81.00
2018-05-26T09:49:44.626Z,76.60
2018-05-26T09:52:12.144Z,77.00
2018-05-26T09:54:39.566Z,76.60
2018-05-26T09:57:07.135Z,78.50
2018-05-26T09:59:34.663Z,75.60
2018-05-26T10:02:02.102Z,73.30
2018-05-26T10:04:30.290Z,67.00
2018-05-26T10:06:58.499Z,69.70
2018-05-26T10:09:25.906Z,69.60
2018-05-26T10:11:53.443Z,72.90
2018-05-26T10:14:20.915Z,72.90
2018-05-26T10:16:48.340Z,69.00
2018-05-26T10:19:15.850Z,67.30
2018-05-26T10:21:43.327Z,69.90
2018-05-26T10:24:10.794Z,65.60
2018-05-26T10:26:38.262Z,67.20
2018-05-26T10:29:05.722Z,63.30
2018-05-26T10:31:33.149Z,63.00
2018-05-26T10:34:00.675Z,66.40
2018-05-26T10:36:28.147Z,64.70
2018-05-26T10:38:55.562Z,61.30
2018-05-26T10:41:23.079Z,60.50
2018-05-26T10:43:50.547Z,63.10
2018-05-26T10:46:24.789Z,59.90
2018-05-26T10:48:52.206Z,60.40
2018-05-26T10:51:19.629Z,59.00
2018-05-26T10:53:47.042Z,62.20
2018-05-26T10:56:14.480Z,57.60
2018-05-26T10:58:41.931Z,56.80
2018-05-26T11:01:09.394Z,57.00
2018-05-26T11:03:36.871Z,57.80
2018-05-26T11:06:04.303Z,60.30
2018-05-26T11:08:32.518Z,55.50
2018-05-26T11:10:59.995Z,55.50
2018-05-26T11:13:27.482Z,55.60
2018-05-26T11:15:54.885Z,57.20
2018-05-26T11:18:22.306Z,57.10
2018-05-26T11:20:49.738Z,58.00
2018-05-26T11:23:17.961Z,53.30
2018-05-26T11:25:45.379Z,53.20
2018-05-26T11:28:12.896Z,55.50
2018-05-26T11:30:40.371Z,49.50
2018-05-26T11:33:07.788Z,52.50
2018-05-26T11:35:35.982Z,56.00
2018-05-26T11:38:03.398Z,55.90
2018-05-26T11:40:30.854Z,51.90
2018-05-26T11:42:58.326Z,51.00
2018-05-26T11:45:25.798Z,50.60
2018-05-26T11:47:53.216Z,51.30
2018-05-26T11:50:20.643Z,50.20
2018-05-26T11:52:48.058Z,49.40
2018-05-26T11:55:17.015Z,50.40
2018-05-26T11:57:44.439Z,50.40
2018-05-26T12:00:11.950Z,53.70
2018-05-26T12:02:39.422Z,52.50
2018-05-26T12:05:06.898Z,48.50
2018-05-26T12:07:34.366Z,50.20
2018-05-26T12:10:01.792Z,49.40
2018-05-26T12:12:29.305Z,51.80
2018-05-26T12:14:56.727Z,50.70
2018-05-26T12:17:24.245Z,49.10
2018-05-26T12:19:51.706Z,45.60
2018-05-26T12:22:19.129Z,46.10
2018-05-26T12:24:46.650Z,46.80
2018-05-26T12:27:14.090Z,44.30
2018-05-26T12:29:42.274Z,47.90
2018-05-26T12:32:10.498Z,45.60
2018-05-26T12:34:37.922Z,45.50
2018-05-26T12:37:05.346Z,44.50
2018-05-26T12:39:32.803Z,45.10
2018-05-26T12:42:00.268Z,46.70
2018-05-26T12:44:27.738Z,45.80
2018-05-26T12:46:55.162Z,46.40
2018-05-26T12:49:22.972Z,48.10
2018-05-26T12:51:51.145Z,50.70
2018-05-26T12:54:19.330Z,50.70
2018-05-26T12:56:47.551Z,50.10
2018-05-26T12:59:15.017Z,50.00
2018-05-26T13:01:42.455Z,50.60
2018-05-26T13:04:09.955Z,49.30
2018-05-26T13:06:37.377Z,48.00
2018-05-26T13:09:05.614Z,47.70
2018-05-26T13:11:33.049Z,47.10
2018-05-26T13:14:00.467Z,47.90
2018-05-26T13:16:27.922Z,47.70
2018-05-26T13:18:55.390Z,46.40
2018-05-26T13:21:22.865Z,44.90
2018-05-26T13:23:50.278Z,46.00
2018-05-26T13:26:19.212Z,45.40
2018-05-26T13:28:47.394Z,44.20
2018-05-26T13:31:15.591Z,44.00
2018-05-26T13:33:43.770Z,42.80
2018-05-26T13:36:11.963Z,43.40
2018-05-26T13:38:40.173Z,41.70
2018-05-26T13:41:07.599Z,41.70
2018-05-26T13:43:35.023Z,43.70
2018-05-26T13:46:02.479Z,45.00
2018-05-26T13:48:29.907Z,45.90
2018-05-26T13:50:57.339Z,44.30
2018-05-26T13:53:24.816Z,43.00
2018-05-26T13:55:52.217Z,40.00
2018-05-26T13:58:20.332Z,43.10
2018-05-26T14:00:47.866Z,42.20
2018-05-26T14:03:15.291Z,41.30
2018-05-26T14:05:42.718Z,41.50
2018-05-26T14:08:10.914Z,43.10
2018-05-26T14:10:39.102Z,43.10
2018-05-26T14:13:07.290Z,42.00
2018-05-26T14:15:34.710Z,42.00
2018-05-26T14:18:02.251Z,41.00
2018-05-26T14:20:29.661Z,38.10
2018-05-26T14:22:57.911Z,38.20
2018-05-26T14:25:25.330Z,38.20
2018-05-26T14:27:52.762Z,38.10
2018-05-26T14:30:20.223Z,40.30
2018-05-26T14:32:47.655Z,39.50
2018-05-26T14:35:15.891Z,38.90
2018-05-26T14:37:43.335Z,38.90
2018-05-26T14:40:10.815Z,40.10
2018-05-26T14:42:38.278Z,37.30
2018-05-26T14:45:05.742Z,39.00
2018-05-26T14:47:33.215Z,37.80
2018-05-26T14:50:00.718Z,38.40
2018-05-26T14:52:28.061Z,37.80
2018-05-26T14:54:55.523Z,39.20
2018-05-26T14:57:22.955Z,38.50
2018-05-26T14:59:50.463Z,35.70
2018-05-26T15:02:17.892Z,37.00
2018-05-26T15:04:45.311Z,37.30
2018-05-26T15:07:12.738Z,37.80
2018-05-26T15:09:40.927Z,40.60
2018-05-26T15:12:09.155Z,40.30
2018-05-26T15:14:36.619Z,40.20
2018-05-26T15:17:04.086Z,39.10
2018-05-26T15:19:31.505Z,41.40
2018-05-26T15:21:59.026Z,38.60
2018-05-26T15:24:26.447Z,40.60
2018-05-26T15:26:53.971Z,38.80
2018-05-26T15:29:21.394Z,39.60
2018-05-26T15:31:48.835Z,39.30
2018-05-26T15:34:16.255Z,38.10
2018-05-26T15:36:44.459Z,39.50
2018-05-26T15:39:11.935Z,39.50
2018-05-26T15:41:39.405Z,39.50
2018-05-26T15:44:06.879Z,38.20
2018-05-26T15:46:34.338Z,38.80
2018-05-26T15:49:01.763Z,36.50
2018-05-26T15:51:29.280Z,39.00
2018-05-26T15:53:56.772Z,37.70
2018-05-26T15:56:24.221Z,39.10
2018-05-26T15:58:51.651Z,38.20
2018-05-26T16:01:19.074Z,38.90
2018-05-26T16:03:46.531Z,39.90
2018-05-26T16:06:13.951Z,40.70
2018-05-26T16:08:41.467Z,41.00
2018-05-26T16:11:08.940Z,39.60
2018-05-26T16:13:36.411Z,39.90
2018-05-26T16:16:03.830Z,39.40
2018-05-26T16:18:31.351Z,38.20
2018-05-26T16:20:58.777Z,38.80
2018-05-26T16:23:27.011Z,38.40
2018-05-26T16:25:54.431Z,38.90
2018-05-26T16:28:23.383Z,40.50
2018-05-26T16:30:50.848Z,41.20
2018-05-26T16:33:18.277Z,41.20
2018-05-26T16:35:45.699Z,39.70
2018-05-26T16:38:13.122Z,40.20
2018-05-26T16:40:41.340Z,40.50
2018-05-26T16:43:08.811Z,40.50
2018-05-26T16:45:36.231Z,41.20
2018-05-26T16:48:03.747Z,42.10
2018-05-26T16:50:31.171Z,41.90
2018-05-26T16:52:58.593Z,42.00
2018-05-26T16:55:26.059Z,43.40
2018-05-26T16:57:53.527Z,44.90
2018-05-26T17:00:20.951Z,43.30
2018-05-26T17:02:48.472Z,43.40
2018-05-26T17:05:15.886Z,44.20
2018-05-26T17:07:43.411Z,44.60
2018-05-26T17:10:10.831Z,45.70
2018-05-26T17:12:38.359Z,46.20
2018-05-26T17:15:05.774Z,47.80
2018-05-26T17:17:33.289Z,47.40
2018-05-26T17:20:00.711Z,48.10
2018-05-26T17:22:28.139Z,47.60
2018-05-26T17:24:55.558Z,48.30
2018-05-26T17:27:23.763Z,50.80
2018-05-26T17:29:51.970Z,50.90
2018-05-26T17:32:19.394Z,50.90
2018-05-26T17:34:48.322Z,50.60
2018-05-26T17:37:16.529Z,50.40
2018-05-26T17:39:44.006Z,50.40
2018-05-26T17:42:11.426Z,51.40
2018-05-26T17:44:38.919Z,53.80
2018-05-26T17:47:07.117Z,55.70
2018-05-26T17:49:34.554Z,55.60
2018-05-26T17:52:01.978Z,57.30
2018-05-26T17:54:29.439Z,58.30
2018-05-26T17:56:56.866Z,57.30
2018-05-26T17:59:24.286Z,58.80
2018-05-26T18:01:51.720Z,59.60
2018-05-26T18:04:19.903Z,59.40
2018-05-26T18:06:48.103Z,60.70
2018-05-26T18:09:15.518Z,60.50
2018-05-26T18:11:42.947Z,61.90
2018-05-26T18:14:10.379Z,62.40
2018-05-26T18:16:37.898Z,63.60
2018-05-26T18:19:05.361Z,64.50
2018-05-26T18:21:32.796Z,65.50
2018-05-26T18:24:00.302Z,65.00
2018-05-26T18:26:27.774Z,66.00
2018-05-26T18:28:55.247Z,67.00
2018-05-26T18:31:22.720Z,67.40
2018-05-26T18:33:50.183Z,68.60
2018-05-26T18:36:17.659Z,69.40
2018-05-26T18:38:45.082Z,69.50
2018-05-26T18:41:12.499Z,70.90
2018-05-26T18:43:39.927Z,71.30
2018-05-26T18:46:08.116Z,69.90
2018-05-26T18:48:36.315Z,70.30
2018-05-26T18:51:04.522Z,71.30
2018-05-26T18:53:32.094Z,71.20
2018-05-26T18:55:59.510Z,71.40
2018-05-26T18:58:27.737Z,71.10
2018-05-26T19:00:55.942Z,72.20
2018-05-26T19:03:23.411Z,72.20
2018-05-26T19:05:50.826Z,74.50
2018-05-26T19:08:18.255Z,75.50
2018-05-26T19:10:45.714Z,75.70
2018-05-26T19:13:13.144Z,74.60
2018-05-26T19:15:41.380Z,76.10
2018-05-26T19:18:08.815Z,75.20
2018-05-26T19:20:37.955Z,75.70
2018-05-26T19:23:05.414Z,75.70
2018-05-26T19:25:32.885Z,76.80
2018-05-26T19:28:00.314Z,77.60
2018-05-26T19:30:27.827Z,78.20
2018-05-26T19:32:55.259Z,77.90
2018-05-26T19:35:22.694Z,77.20
2018-05-26T19:37:50.140Z,76.90
2018-05-26T19:40:17.604Z,77.10
2018-05-26T19:42:45.090Z,77.00
2018-05-26T19:45:12.515Z,77.10
2018-05-26T19:47:39.938Z,78.20
2018-05-26T19:50:07.593Z,79.10
2018-05-26T19:52:35.055Z,79.40
2018-05-26T19:55:02.527Z,80.10
2018-05-26T19:57:30.001Z,79.40
2018-05-26T19:59:57.462Z,79.50
2018-05-26T20:02:24.898Z,79.90
2018-05-26T20:04:52.314Z,80.60
2018-05-26T20:07:19.737Z,81.30
2018-05-26T20:09:47.918Z,82.20
2018-05-26T20:12:15.367Z,82.10
2018-05-26T20:14:42.798Z,82.20
2018-05-26T20:17:10.218Z,82.00
2018-05-26T20:19:37.738Z,82.20
2018-05-26T20:22:05.222Z,82.70
2018-05-26T20:24:32.634Z,82.90
2018-05-26T20:27:00.151Z,83.70
2018-05-26T20:29:27.574Z,83.80
2018-05-26T20:31:55.085Z,83.30
2018-05-26T20:34:22.515Z,83.50
2018-05-26T20:36:49.934Z,83.20
2018-05-26T20:39:17.381Z,83.00
2018-05-26T20:41:45.582Z,84.20
2018-05-26T20:44:13.011Z,84.10
2018-05-26T20:46:41.196Z,84.30
2018-05-26T20:49:10.134Z,84.40
2018-05-26T20:51:37.550Z,84.40
2018-05-26T20:54:05.082Z,84.60
2018-05-26T20:56:32.502Z,84.90
2018-05-26T20:59:00.022Z,84.90
2018-05-26T21:01:27.490Z,85.30
2018-05-26T21:03:54.959Z,85.70
2018-05-26T21:06:22.379Z,85.50
2018-05-26T21:08:49.899Z,85.60
2018-05-26T21:11:17.324Z,85.80
2018-05-26T21:13:44.746Z,86.80
2018-05-26T21:16:12.214Z,86.10
2018-05-26T21:18:39.683Z,86.40
2018-05-26T21:21:07.130Z,86.70
2018-05-26T21:23:35.331Z,88.10
2018-05-26T21:26:02.803Z,87.90
2018-05-26T21:28:30.282Z,88.00
2018-05-26T21:30:57.750Z,88.30
2018-05-26T21:33:25.214Z,88.10
2018-05-26T21:35:52.634Z,88.10
2018-05-26T21:38:20.154Z,88.30
2018-05-26T21:40:47.626Z,88.50
2018-05-26T21:43:15.102Z,88.60
2018-05-26T21:45:42.530Z,88.90
2018-05-26T21:48:10.034Z,88.80
2018-05-26T21:50:37.606Z,88.60
2018-05-26T21:53:05.033Z,89.60
2018-05-26T21:55:32.449Z,89.00
2018-05-26T21:57:59.937Z,89.90
2018-05-26T22:00:28.065Z,88.90
2018-05-26T22:02:56.258Z,89.50
2018-05-26T22:05:24.440Z,88.90
2018-05-26T22:07:52.666Z,88.80
2018-05-26T22:10:20.083Z,88.80
2018-05-26T22:12:47.598Z,89.00
2018-05-26T22:15:15.070Z,88.70
2018-05-26T22:17:42.499Z,89.20
2018-05-26T22:20:09.922Z,89.30
2018-05-26T22:22:37.591Z,89.40
2018-05-26T22:25:05.019Z,89.50
2018-05-26T22:27:33.238Z,89.50
2018-05-26T22:30:00.715Z,89.50
2018-05-26T22:32:28.180Z,89.60
2018-05-26T22:34:55.651Z,90.00
2018-05-26T22:37:23.062Z,89.50
2018-05-26T22:39:50.700Z,89.20
2018-05-26T22:42:18.114Z,89.20
2018-05-26T22:44:45.631Z,89.30
2018-05-26T22:47:13.055Z,89.50
2018-05-26T22:49:42.003Z,89.80
2018-05-26T22:52:09.475Z,89.70
2018-05-26T22:54:36.943Z,90.00
2018-05-26T22:57:04.367Z,90.00
2018-05-26T22:59:31.795Z,90.00
2018-05-26T23:01:59.215Z,90.10
2018-05-26T23:04:27.427Z,90.50
2018-05-26T23:06:54.967Z,90.10
2018-05-26T23:09:22.375Z,90.30
2018-05-26T23:11:49.806Z,90.50
2018-05-26T23:14:17.230Z,90.70
2018-05-26T23:16:44.654Z,90.60
2018-05-26T23:19:12.880Z,90.50
2018-05-26T23:21:40.303Z,90.50
2018-05-26T23:24:07.819Z,90.60
2018-05-26T23:26:35.278Z,90.60
2018-05-26T23:29:02.771Z,90.60
2018-05-26T23:31:30.182Z,90.70
2018-05-26T23:33:57.698Z,90.70
2018-05-26T23:36:25.114Z,90.60
2018-05-26T23:38:52.636Z,90.50
2018-05-26T23:41:20.054Z,90.50
2018-05-26T23:43:48.987Z,90.90
2018-05-26T23:46:17.193Z,90.90
2018-05-26T23:48:44.624Z,90.90
2018-05-26T23:51:12.042Z,90.80
2018-05-26T23:53:39.466Z,90.90
2018-05-26T23:56:07.699Z,90.60
2018-05-26T23:58:35.129Z,90.60
